Airfield :
LOGIN :

Register | Disclaimer

   EN    FR    IT 

 










Legend :    VFR   Marginal VFR   IFR   Intensive IFR   Very Intensive IFR
Visi :
Ceiling :
>= 8 km
>= 3000ft
5 to 8 km
1000 to 3000 ft
1500m to 5 km
500 to 1000 ft
800 to 1500m
200 to 500 ft
< 800m
< 200 ft
Symbols :   Thunderstorms  Fog  Heavy snow  Heavy precipitations  Wind > 20 kt
SIGMETs :     Misc.  Thunderstorms  Icing  Turbulence  Mountain Waves  Volcanic Ashes







- Airport Elevation : 202 ft
- IATA code : LGW
- Download approach charts


EGKK - London Gatwick

CURRENT METAR :
  • 181550Z 23008KT 9999 SCT024 BKN030 20/15 Q1021

EXPIRED METARs :
  • 181520Z 23008KT 190V260 9999 BKN032 20/15 Q1021
  • 181450Z 23009KT 9999 FEW022 BKN034 20/15 Q1021
  • 181420Z 23009KT 9999 FEW023 BKN030 20/15 Q1021
  • 181350Z 25009KT 9999 SCT027 BKN033 20/14 Q1021

TAF TAF EGKK
Valid from the 18 at 12:00 until the 19 at 18:00 UTC


181050Z 1812/1918 23008KT 9999 SCT035
BECMG 1902/1905 BKN010
PROB30
TEMPO 1905/1908 5000 -RADZ BKN007
TEMPO 1908/1911 BKN025
PROB30
TEMPO 1911/1915 22015G25KT 5000 -RADZ BKN007
TEMPO 1915/1918 BKN025
No reported NOTAMs for that airfield.



MET'MAP, your aeronautical weather chart ! - Copyright ORBIFLY December 2007 - Disclaimer

ORBIFLY MET'MAP TEAM :

Programming & Development : Alexandra Zaïnal
Concept & Development : Baudouin d'Aumeries
Co-Development & Prog : Marc-Olivier Méhu
Technical & hardware support : Manuel Goepfert

Contact : metmap@orbifly.com




SOURCES & CREDITS :

   NOAA